createdAt,value
2023-04-28T00:00:51.458Z,95226.00
2023-04-28T00:01:51.472Z,95226.00
2023-04-28T00:02:51.595Z,95224.00
2023-04-28T00:03:51.708Z,95226.00
2023-04-28T00:04:52.059Z,95226.00
2023-04-28T00:05:51.537Z,95226.00
2023-04-28T00:06:51.520Z,95224.00
2023-04-28T00:07:51.540Z,95223.00
2023-04-28T00:08:51.567Z,95224.00
2023-04-28T00:09:51.625Z,95224.00
2023-04-28T00:10:51.645Z,95223.00
2023-04-28T00:11:51.650Z,95224.00
2023-04-28T00:12:51.688Z,95226.00
2023-04-28T00:13:51.709Z,95228.00
2023-04-28T00:14:51.770Z,95228.00
2023-04-28T00:15:51.807Z,95230.00
2023-04-28T00:16:51.922Z,95230.00
2023-04-28T00:17:51.953Z,95228.00
2023-04-28T00:18:51.880Z,95224.00
2023-04-28T00:19:51.910Z,95224.00
2023-04-28T00:20:51.941Z,95224.00
2023-04-28T00:21:51.979Z,95224.00
2023-04-28T00:22:52.002Z,95226.00
2023-04-28T00:23:52.037Z,95224.00
2023-04-28T00:24:52.071Z,95223.00
2023-04-28T00:25:52.107Z,95224.00
2023-04-28T00:26:52.175Z,95223.00
2023-04-28T00:27:52.172Z,95219.00
2023-04-28T00:28:52.207Z,95221.00
2023-04-28T00:29:52.240Z,95219.00
2023-04-28T00:30:52.279Z,95219.00
2023-04-28T00:31:52.327Z,95217.00
2023-04-28T00:32:52.361Z,95219.00
2023-04-28T00:33:52.382Z,95213.00
2023-04-28T00:34:52.422Z,95215.00
2023-04-28T00:35:52.470Z,95213.00
2023-04-28T00:36:52.506Z,95215.00
2023-04-28T00:37:52.527Z,95217.00
2023-04-28T00:38:52.564Z,95217.00
2023-04-28T00:39:52.604Z,95215.00
2023-04-28T00:40:52.643Z,95213.00
2023-04-28T00:41:52.676Z,95211.00
2023-04-28T00:42:52.746Z,95211.00
2023-04-28T00:43:52.756Z,95213.00
2023-04-28T00:44:52.793Z,95213.00
2023-04-28T00:45:52.879Z,95213.00
2023-04-28T00:46:52.865Z,95211.00
2023-04-28T00:47:52.918Z,95211.00
2023-04-28T00:48:52.945Z,95213.00
2023-04-28T00:49:52.995Z,95213.00
2023-04-28T00:50:53.031Z,95211.00
2023-04-28T00:51:53.054Z,95211.00
2023-04-28T00:52:53.102Z,95209.00
2023-04-28T00:53:53.126Z,95211.00
2023-04-28T00:54:53.183Z,95207.00
2023-04-28T00:55:53.210Z,95203.00
2023-04-28T00:56:53.248Z,95201.00
2023-04-28T00:57:53.287Z,95199.00
2023-04-28T00:58:53.354Z,95201.00
2023-04-28T00:59:53.365Z,95205.00
2023-04-28T01:00:53.446Z,95205.00
2023-04-28T01:01:53.438Z,95203.00
2023-04-28T01:02:53.703Z,95205.00
2023-04-28T01:03:53.781Z,95205.00
2023-04-28T01:04:53.550Z,95207.00
2023-04-28T01:05:53.596Z,95207.00
2023-04-28T01:06:53.635Z,95209.00
2023-04-28T01:07:53.670Z,95209.00
2023-04-28T01:08:53.698Z,95211.00
2023-04-28T01:09:53.736Z,95207.00
2023-04-28T01:10:53.777Z,95207.00
2023-04-28T01:11:53.822Z,95205.00
2023-04-28T01:12:53.849Z,95203.00
2023-04-28T01:13:53.949Z,95203.00
2023-04-28T01:14:53.960Z,95201.00
2023-04-28T01:15:53.967Z,95203.00
2023-04-28T01:16:54.170Z,95199.00
2023-04-28T01:17:54.099Z,95203.00
2023-04-28T01:18:54.103Z,95201.00
2023-04-28T01:19:54.142Z,95195.00
2023-04-28T01:20:54.191Z,95193.00
2023-04-28T01:21:54.239Z,95199.00
2023-04-28T01:22:55.271Z,95195.00
2023-04-28T01:23:55.271Z,95195.00
2023-04-28T01:24:54.350Z,95193.00
2023-04-28T01:25:54.390Z,95191.00
2023-04-28T01:26:54.435Z,95193.00
2023-04-28T01:27:54.464Z,95189.00
2023-04-28T01:28:54.505Z,95189.00
2023-04-28T01:29:54.536Z,95191.00
2023-04-28T01:30:54.607Z,95191.00
2023-04-28T01:31:54.670Z,95189.00
2023-04-28T01:32:54.767Z,95187.00
2023-04-28T01:33:54.716Z,95191.00
2023-04-28T01:34:54.782Z,95187.00
2023-04-28T01:35:54.807Z,95191.00
2023-04-28T01:36:54.858Z,95191.00
2023-04-28T01:37:54.927Z,95189.00
2023-04-28T01:38:54.923Z,95187.00
2023-04-28T01:39:54.967Z,95185.00
2023-04-28T01:40:55.006Z,95187.00
2023-04-28T01:41:55.057Z,95187.00
2023-04-28T01:42:55.082Z,95189.00
2023-04-28T01:43:55.137Z,95189.00
2023-04-28T01:44:55.168Z,95187.00
2023-04-28T01:45:55.283Z,95189.00
2023-04-28T01:46:55.285Z,95191.00
2023-04-28T01:47:55.387Z,95195.00
2023-04-28T01:48:55.343Z,95193.00
2023-04-28T01:49:55.387Z,95191.00
2023-04-28T01:50:55.483Z,95189.00
2023-04-28T01:51:55.472Z,95185.00
2023-04-28T01:52:55.527Z,95183.00
2023-04-28T01:53:55.580Z,95185.00
2023-04-28T01:54:55.602Z,95187.00
2023-04-28T01:55:55.640Z,95193.00
2023-04-28T01:56:55.694Z,95189.00
2023-04-28T01:57:55.727Z,95193.00
2023-04-28T01:58:55.773Z,95187.00
2023-04-28T01:59:55.808Z,95189.00
2023-04-28T02:00:55.855Z,95183.00
2023-04-28T02:01:56.018Z,95181.00
2023-04-28T02:02:56.035Z,95179.00
2023-04-28T02:03:56.116Z,95181.00
2023-04-28T02:04:56.113Z,95181.00
2023-04-28T02:05:56.071Z,95183.00
2023-04-28T02:06:56.114Z,95181.00
2023-04-28T02:07:56.161Z,95183.00
2023-04-28T02:08:56.199Z,95181.00
2023-04-28T02:09:56.244Z,95181.00
2023-04-28T02:10:56.285Z,95181.00
2023-04-28T02:11:56.341Z,95179.00
2023-04-28T02:12:56.387Z,95177.00
2023-04-28T02:13:56.436Z,95177.00
2023-04-28T02:14:56.474Z,95179.00
2023-04-28T02:15:56.589Z,95179.00
2023-04-28T02:16:56.563Z,95179.00
2023-04-28T02:17:56.688Z,95177.00
2023-04-28T02:18:56.670Z,95177.00
2023-04-28T02:19:56.722Z,95176.00
2023-04-28T02:20:56.741Z,95170.00
2023-04-28T02:21:56.810Z,95170.00
2023-04-28T02:22:56.826Z,95168.00
2023-04-28T02:23:56.864Z,95166.00
2023-04-28T02:24:56.902Z,95166.00
2023-04-28T02:25:56.967Z,95166.00
2023-04-28T02:26:56.996Z,95168.00
2023-04-28T02:27:57.035Z,95168.00
2023-04-28T02:28:57.075Z,95168.00
2023-04-28T02:29:57.126Z,95168.00
2023-04-28T02:30:57.171Z,95168.00
2023-04-28T02:31:57.374Z,95172.00
2023-04-28T02:32:57.285Z,95170.00
2023-04-28T02:33:57.311Z,95174.00
2023-04-28T02:34:57.411Z,95176.00
2023-04-28T02:35:57.401Z,95176.00
2023-04-28T02:36:57.450Z,95174.00
2023-04-28T02:37:57.495Z,95176.00
2023-04-28T02:38:57.535Z,95174.00
2023-04-28T02:39:57.575Z,95176.00
2023-04-28T02:40:57.619Z,95177.00
2023-04-28T02:41:57.675Z,95176.00
2023-04-28T02:42:57.715Z,95177.00
2023-04-28T02:43:57.752Z,95177.00
2023-04-28T02:44:57.812Z,95177.00
2023-04-28T02:45:57.857Z,95176.00
2023-04-28T02:46:57.988Z,95176.00
2023-04-28T02:47:58.018Z,95176.00
2023-04-28T02:48:58.008Z,95174.00
2023-04-28T02:49:58.048Z,95174.00
2023-04-28T02:50:58.198Z,95174.00
2023-04-28T02:51:58.127Z,95172.00
2023-04-28T02:52:58.173Z,95174.00
2023-04-28T02:53:58.211Z,95174.00
2023-04-28T02:54:58.262Z,95174.00
2023-04-28T02:55:58.305Z,95174.00
2023-04-28T02:56:58.364Z,95174.00
2023-04-28T02:57:58.393Z,95168.00
2023-04-28T02:58:58.437Z,95170.00
2023-04-28T02:59:58.507Z,95170.00
2023-04-28T03:00:58.608Z,95170.00
2023-04-28T03:01:58.579Z,95170.00
2023-04-28T03:02:58.920Z,95170.00
2023-04-28T03:03:59.016Z,95170.00
2023-04-28T03:04:58.805Z,95166.00
2023-04-28T03:05:58.766Z,95164.00
2023-04-28T03:06:58.837Z,95156.00
2023-04-28T03:07:58.878Z,95154.00
2023-04-28T03:08:58.935Z,95152.00
2023-04-28T03:09:58.956Z,95146.00
2023-04-28T03:10:59.022Z,95148.00
2023-04-28T03:11:59.053Z,95146.00
2023-04-28T03:12:59.100Z,95138.00
2023-04-28T03:13:59.146Z,95138.00
2023-04-28T03:14:59.210Z,95134.00
2023-04-28T03:15:59.327Z,95128.00
2023-04-28T03:16:59.293Z,95126.00
2023-04-28T03:17:59.406Z,95124.00
2023-04-28T03:18:59.395Z,95119.00
2023-04-28T03:19:59.445Z,95120.00
2023-04-28T03:20:59.515Z,95115.00
2023-04-28T03:21:59.540Z,95115.00
2023-04-28T03:22:59.611Z,95115.00
2023-04-28T03:23:59.617Z,95111.00
2023-04-28T03:24:59.657Z,95111.00
2023-04-28T03:25:59.717Z,95111.00
2023-04-28T03:26:59.748Z,95109.00
2023-04-28T03:27:59.786Z,95107.00
2023-04-28T03:28:59.814Z,95109.00
2023-04-28T03:29:59.848Z,95109.00
2023-04-28T03:30:59.898Z,95103.00
2023-04-28T03:31:59.956Z,95107.00
2023-04-28T03:33:00.004Z,95107.00
2023-04-28T03:34:00.030Z,95109.00
2023-04-28T03:35:00.037Z,95107.00
2023-04-28T03:36:00.091Z,95109.00
2023-04-28T03:37:00.152Z,95107.00
2023-04-28T03:38:00.139Z,95105.00
2023-04-28T03:39:00.255Z,95103.00
2023-04-28T03:40:00.273Z,95099.00
2023-04-28T03:41:00.214Z,95097.00
2023-04-28T03:42:00.233Z,95097.00
2023-04-28T03:43:01.250Z,95091.00
2023-04-28T03:44:00.237Z,95093.00
2023-04-28T03:45:00.252Z,95089.00
2023-04-28T03:46:00.238Z,95087.00
2023-04-28T03:47:00.196Z,95089.00
2023-04-28T03:48:00.222Z,95095.00
2023-04-28T03:49:00.154Z,95091.00
2023-04-28T03:50:00.135Z,95097.00
2023-04-28T03:51:00.104Z,95099.00
2023-04-28T03:52:00.119Z,95097.00
2023-04-28T03:53:00.090Z,95093.00
2023-04-28T03:54:00.070Z,95095.00
2023-04-28T03:55:00.097Z,95097.00
2023-04-28T03:56:00.046Z,95095.00
2023-04-28T03:57:00.042Z,95095.00
2023-04-28T03:58:00.007Z,95095.00
2023-04-28T03:58:59.994Z,95091.00
2023-04-28T04:00:00.006Z,95095.00
2023-04-28T04:00:59.964Z,95093.00
2023-04-28T04:01:59.943Z,95091.00
2023-04-28T04:03:00.044Z,95089.00
2023-04-28T04:04:00.170Z,95089.00
2023-04-28T04:05:01.123Z,95087.00
2023-04-28T04:05:59.884Z,95087.00
2023-04-28T04:06:59.865Z,95089.00
2023-04-28T04:07:59.871Z,95085.00
2023-04-28T04:08:59.871Z,95087.00
2023-04-28T04:10:00.945Z,95089.00
2023-04-28T04:10:59.885Z,95089.00
2023-04-28T04:11:59.872Z,95081.00
2023-04-28T04:12:59.824Z,95083.00
2023-04-28T04:13:59.807Z,95081.00
2023-04-28T04:14:59.789Z,95079.00
2023-04-28T04:15:59.815Z,95081.00
2023-04-28T04:16:59.759Z,95083.00
2023-04-28T04:17:59.769Z,95083.00
2023-04-28T04:18:59.725Z,95079.00
2023-04-28T04:19:59.716Z,95083.00
2023-04-28T04:20:59.697Z,95085.00
2023-04-28T04:21:59.700Z,95085.00
2023-04-28T04:22:59.659Z,95089.00
2023-04-28T04:23:59.647Z,95087.00
2023-04-28T04:24:59.629Z,95089.00
2023-04-28T04:25:59.617Z,95087.00
2023-04-28T04:26:59.630Z,95091.00
2023-04-28T04:27:59.592Z,95095.00
2023-04-28T04:28:59.587Z,95093.00
2023-04-28T04:29:59.570Z,95093.00
2023-04-28T04:30:59.615Z,95093.00
2023-04-28T04:31:59.536Z,95093.00
2023-04-28T04:32:59.596Z,95095.00
2023-04-28T04:33:59.510Z,95097.00
2023-04-28T04:34:59.491Z,95097.00
2023-04-28T04:35:59.478Z,95093.00
2023-04-28T04:36:59.465Z,95093.00
2023-04-28T04:37:59.441Z,95095.00
2023-04-28T04:38:59.432Z,95093.00
2023-04-28T04:39:59.434Z,95087.00
2023-04-28T04:40:59.408Z,95089.00
2023-04-28T04:42:01.765Z,95087.00
2023-04-28T04:42:59.394Z,95087.00
2023-04-28T04:43:59.346Z,95089.00
2023-04-28T04:44:59.325Z,95085.00
2023-04-28T04:45:59.323Z,95083.00
2023-04-28T04:46:59.307Z,95083.00
2023-04-28T04:47:59.316Z,95085.00
2023-04-28T04:48:59.255Z,95089.00
2023-04-28T04:49:59.245Z,95089.00
2023-04-28T04:50:59.237Z,95089.00
2023-04-28T04:51:59.215Z,95089.00
2023-04-28T04:52:59.200Z,95091.00
2023-04-28T04:53:59.191Z,95091.00
2023-04-28T04:54:59.172Z,95091.00
2023-04-28T04:55:59.164Z,95093.00
2023-04-28T04:56:59.133Z,95091.00
2023-04-28T04:57:59.123Z,95093.00
2023-04-28T04:58:59.138Z,95091.00
2023-04-28T04:59:59.076Z,95093.00
2023-04-28T05:00:59.055Z,95097.00
2023-04-28T05:01:59.085Z,95101.00
2023-04-28T05:02:59.173Z,95099.00
2023-04-28T05:03:59.154Z,95101.00
2023-04-28T05:05:07.995Z,95103.00
2023-04-28T05:05:58.989Z,95109.00
2023-04-28T05:06:58.959Z,95107.00
2023-04-28T05:07:58.971Z,95101.00
2023-04-28T05:08:58.943Z,95101.00
2023-04-28T05:09:58.926Z,95099.00
2023-04-28T05:10:58.906Z,95099.00
2023-04-28T05:11:58.893Z,95097.00
2023-04-28T05:12:58.874Z,95103.00
2023-04-28T05:13:58.856Z,95103.00
2023-04-28T05:14:58.861Z,95107.00
2023-04-28T05:15:58.874Z,95103.00
2023-04-28T05:16:58.836Z,95103.00
2023-04-28T05:17:58.900Z,95101.00
2023-04-28T05:18:58.762Z,95105.00
2023-04-28T05:19:58.738Z,95107.00
2023-04-28T05:20:58.726Z,95109.00
2023-04-28T05:21:58.854Z,95113.00
2023-04-28T05:22:58.699Z,95115.00
2023-04-28T05:23:58.857Z,95113.00
2023-04-28T05:24:58.678Z,95115.00
2023-04-28T05:25:58.655Z,95115.00
2023-04-28T05:26:58.644Z,95117.00
2023-04-28T05:27:58.854Z,95115.00
2023-04-28T05:28:58.857Z,95119.00
2023-04-28T05:29:58.639Z,95117.00
2023-04-28T05:30:58.644Z,95117.00
2023-04-28T05:31:58.599Z,95111.00
2023-04-28T05:32:58.529Z,95113.00
2023-04-28T05:33:58.914Z,95117.00
2023-04-28T05:34:58.465Z,95115.00
2023-04-28T05:35:58.476Z,95117.00
2023-04-28T05:36:58.415Z,95115.00
2023-04-28T05:37:58.392Z,95124.00
2023-04-28T05:38:59.029Z,95124.00
2023-04-28T05:39:58.360Z,95126.00
2023-04-28T05:40:58.344Z,95124.00
2023-04-28T05:41:58.374Z,95122.00
2023-04-28T05:42:58.373Z,95130.00
2023-04-28T05:43:58.771Z,95128.00
2023-04-28T05:44:58.390Z,95126.00
2023-04-28T05:45:58.265Z,95124.00
2023-04-28T05:46:58.457Z,95128.00
2023-04-28T05:47:58.204Z,95122.00
2023-04-28T05:48:58.182Z,95128.00
2023-04-28T05:49:58.366Z,95124.00
2023-04-28T05:50:59.350Z,95126.00
2023-04-28T05:52:01.281Z,95130.00
2023-04-28T05:52:58.021Z,95126.00
2023-04-28T05:54:01.195Z,95124.00
2023-04-28T05:54:58.492Z,95126.00
2023-04-28T05:55:58.371Z,95128.00
2023-04-28T05:56:59.509Z,95126.00
2023-04-28T05:57:58.380Z,95128.00
2023-04-28T05:58:59.406Z,95128.00
2023-04-28T05:59:57.976Z,95130.00
2023-04-28T06:01:05.422Z,95132.00
2023-04-28T06:02:01.230Z,95132.00
2023-04-28T06:02:59.070Z,95130.00
2023-04-28T06:03:58.106Z,95130.00
2023-04-28T06:04:58.537Z,95134.00
2023-04-28T06:06:08.854Z,95138.00
2023-04-28T06:06:57.872Z,95136.00
2023-04-28T06:07:57.877Z,95134.00
2023-04-28T06:08:57.794Z,95132.00
2023-04-28T06:09:57.838Z,95128.00
2023-04-28T06:10:57.742Z,95128.00
2023-04-28T06:11:58.488Z,95128.00
2023-04-28T06:12:57.860Z,95124.00
2023-04-28T06:13:58.870Z,95124.00
2023-04-28T06:14:59.514Z,95124.00
2023-04-28T06:15:57.655Z,95122.00
2023-04-28T06:16:58.871Z,95124.00
2023-04-28T06:17:58.021Z,95128.00
2023-04-28T06:18:56.513Z,95119.00
2023-04-28T06:19:57.484Z,95122.00
2023-04-28T06:20:59.406Z,95115.00
2023-04-28T06:21:57.432Z,95119.00
2023-04-28T06:22:59.373Z,95115.00
2023-04-28T06:23:57.437Z,95120.00
2023-04-28T06:24:57.547Z,95120.00
2023-04-28T06:25:57.564Z,95124.00
2023-04-28T06:26:57.876Z,95124.00
2023-04-28T06:27:57.387Z,95130.00
2023-04-28T06:28:57.235Z,95130.00
2023-04-28T06:29:57.209Z,95134.00
2023-04-28T06:30:57.519Z,95136.00
2023-04-28T06:31:59.874Z,95138.00
2023-04-28T06:32:57.197Z,95138.00
2023-04-28T06:33:57.315Z,95150.00
2023-04-28T06:34:58.500Z,95148.00
2023-04-28T06:35:57.274Z,95150.00
2023-04-28T06:36:57.279Z,95150.00
2023-04-28T06:37:57.288Z,95158.00
2023-04-28T06:38:57.480Z,95162.00
2023-04-28T06:39:57.614Z,95162.00
2023-04-28T06:40:57.937Z,95162.00
2023-04-28T06:42:00.458Z,95158.00
2023-04-28T06:42:57.349Z,95162.00
2023-04-28T06:43:58.781Z,95162.00
2023-04-28T06:45:04.817Z,95160.00
2023-04-28T06:45:57.345Z,95160.00
2023-04-28T06:46:57.446Z,95160.00
2023-04-28T06:47:57.478Z,95162.00
2023-04-28T06:48:57.264Z,95156.00
2023-04-28T06:49:57.247Z,95154.00
2023-04-28T06:50:57.181Z,95160.00
2023-04-28T06:51:57.184Z,95158.00
2023-04-28T06:52:57.379Z,95158.00
2023-04-28T06:53:57.113Z,95156.00
2023-04-28T06:54:57.114Z,95158.00
2023-04-28T06:55:57.131Z,95156.00
2023-04-28T06:56:57.163Z,95152.00
2023-04-28T06:57:57.382Z,95152.00
2023-04-28T06:58:57.582Z,95154.00
2023-04-28T06:59:57.161Z,95152.00
2023-04-28T07:00:57.262Z,95158.00
2023-04-28T07:01:57.713Z,95158.00
2023-04-28T07:02:57.460Z,95156.00
2023-04-28T07:03:57.402Z,95156.00
2023-04-28T07:04:57.217Z,95160.00
2023-04-28T07:05:57.254Z,95154.00
2023-04-28T07:06:57.255Z,95154.00
2023-04-28T07:07:57.249Z,95150.00
2023-04-28T07:08:57.251Z,95146.00
2023-04-28T07:09:57.266Z,95150.00
2023-04-28T07:10:57.397Z,95146.00
2023-04-28T07:11:57.394Z,95154.00
2023-04-28T07:12:57.387Z,95146.00
2023-04-28T07:13:57.302Z,95148.00
2023-04-28T07:14:57.302Z,95152.00
2023-04-28T07:15:57.345Z,95154.00
2023-04-28T07:16:57.300Z,95146.00
2023-04-28T07:17:57.436Z,95154.00
2023-04-28T07:18:57.326Z,95152.00
2023-04-28T07:19:57.337Z,95154.00
2023-04-28T07:20:57.341Z,95150.00
2023-04-28T07:21:57.371Z,95150.00
2023-04-28T07:22:57.411Z,95152.00
2023-04-28T07:23:57.400Z,95154.00
2023-04-28T07:24:57.404Z,95154.00
2023-04-28T07:25:57.377Z,95152.00
2023-04-28T07:26:57.403Z,95154.00
2023-04-28T07:27:57.398Z,95152.00
2023-04-28T07:28:57.409Z,95150.00
2023-04-28T07:29:57.358Z,95152.00
2023-04-28T07:30:57.362Z,95154.00
2023-04-28T07:31:57.424Z,95152.00
2023-04-28T07:32:57.476Z,95152.00
2023-04-28T07:33:57.358Z,95160.00
2023-04-28T07:34:57.382Z,95148.00
2023-04-28T07:35:57.402Z,95150.00
2023-04-28T07:36:57.349Z,95154.00
2023-04-28T07:37:57.383Z,95150.00
2023-04-28T07:38:57.352Z,95154.00
2023-04-28T07:39:57.346Z,95154.00
2023-04-28T07:40:57.432Z,95154.00
2023-04-28T07:41:57.403Z,95162.00
2023-04-28T07:42:57.438Z,95160.00
2023-04-28T07:43:57.393Z,95166.00
2023-04-28T07:44:57.365Z,95164.00
2023-04-28T07:45:57.388Z,95166.00
2023-04-28T07:46:57.388Z,95164.00
2023-04-28T07:47:57.476Z,95166.00
2023-04-28T07:48:57.415Z,95160.00
2023-04-28T07:49:57.903Z,95158.00
2023-04-28T07:50:57.398Z,95154.00
2023-04-28T07:51:57.898Z,95162.00
2023-04-28T07:52:58.686Z,95164.00
2023-04-28T07:53:57.446Z,95164.00
2023-04-28T07:54:57.430Z,95174.00
2023-04-28T07:55:57.469Z,95156.00
2023-04-28T07:56:57.901Z,95160.00
2023-04-28T07:58:00.825Z,95166.00
2023-04-28T07:58:57.476Z,95164.00
2023-04-28T07:59:57.479Z,95164.00
2023-04-28T08:00:57.431Z,95166.00
2023-04-28T08:01:57.452Z,95162.00
2023-04-28T08:02:57.569Z,95156.00
2023-04-28T08:03:57.981Z,95158.00
2023-04-28T08:04:57.615Z,95162.00
2023-04-28T08:05:57.690Z,95160.00
2023-04-28T08:06:57.219Z,95162.00
2023-04-28T08:07:57.182Z,95164.00
2023-04-28T08:08:57.528Z,95162.00
2023-04-28T08:09:57.378Z,95158.00
2023-04-28T08:10:57.116Z,95162.00
2023-04-28T08:11:57.405Z,95160.00
2023-04-28T08:12:57.054Z,95166.00
2023-04-28T08:13:56.981Z,95168.00
2023-04-28T08:14:56.949Z,95166.00
2023-04-28T08:15:57.001Z,95166.00
2023-04-28T08:16:56.976Z,95168.00
2023-04-28T08:17:57.012Z,95168.00
2023-04-28T08:18:57.069Z,95166.00
2023-04-28T08:19:57.075Z,95168.00
2023-04-28T08:20:57.107Z,95164.00
2023-04-28T08:21:57.412Z,95172.00
2023-04-28T08:22:57.596Z,95170.00
2023-04-28T08:23:57.199Z,95172.00
2023-04-28T08:24:57.274Z,95170.00
2023-04-28T08:25:57.268Z,95181.00
2023-04-28T08:26:57.413Z,95176.00
2023-04-28T08:27:57.579Z,95177.00
2023-04-28T08:28:57.356Z,95170.00
2023-04-28T08:29:58.055Z,95174.00
2023-04-28T08:30:57.952Z,95179.00
2023-04-28T08:31:57.446Z,95174.00
2023-04-28T08:32:57.928Z,95176.00
2023-04-28T08:33:57.541Z,95179.00
2023-04-28T08:34:57.929Z,95183.00
2023-04-28T08:35:57.599Z,95181.00
2023-04-28T08:36:57.621Z,95185.00
2023-04-28T08:37:57.661Z,95191.00
2023-04-28T08:38:57.706Z,95187.00
2023-04-28T08:39:57.913Z,95189.00
2023-04-28T08:40:57.758Z,95185.00
2023-04-28T08:41:57.747Z,95185.00
2023-04-28T08:42:57.958Z,95183.00
2023-04-28T08:44:29.627Z,95181.00
2023-04-28T08:44:57.723Z,95183.00
2023-04-28T08:45:57.669Z,95183.00
2023-04-28T08:46:57.706Z,95181.00
2023-04-28T08:47:58.007Z,95174.00
2023-04-28T08:48:57.594Z,95176.00
2023-04-28T08:49:57.566Z,95176.00
2023-04-28T08:50:57.533Z,95176.00
2023-04-28T08:51:57.568Z,95176.00
2023-04-28T08:52:57.965Z,95177.00
2023-04-28T08:54:28.964Z,95177.00
2023-04-28T08:54:57.560Z,95176.00
2023-04-28T08:55:57.457Z,95174.00
2023-04-28T08:56:57.414Z,95172.00
2023-04-28T08:57:57.350Z,95177.00
2023-04-28T08:58:57.339Z,95174.00
2023-04-28T08:59:57.270Z,95170.00
2023-04-28T09:00:57.239Z,95168.00
2023-04-28T09:01:57.271Z,95168.00
2023-04-28T09:02:57.659Z,95168.00
2023-04-28T09:03:57.439Z,95168.00
2023-04-28T09:04:57.757Z,95168.00
2023-04-28T09:05:57.071Z,95170.00
2023-04-28T09:06:57.058Z,95168.00
2023-04-28T09:07:57.613Z,95164.00
2023-04-28T09:08:57.201Z,95164.00
2023-04-28T09:09:57.187Z,95168.00
2023-04-28T09:10:57.049Z,95162.00
2023-04-28T09:11:57.272Z,95162.00
2023-04-28T09:12:57.156Z,95164.00
2023-04-28T09:13:56.934Z,95162.00
2023-04-28T09:14:57.305Z,95158.00
2023-04-28T09:15:56.969Z,95160.00
2023-04-28T09:16:57.095Z,95158.00
2023-04-28T09:17:57.099Z,95162.00
2023-04-28T09:18:57.742Z,95164.00
2023-04-28T09:19:56.905Z,95160.00
2023-04-28T09:20:56.987Z,95162.00
2023-04-28T09:21:56.825Z,95160.00
2023-04-28T09:22:57.032Z,95156.00
2023-04-28T09:23:55.861Z,95158.00
2023-04-28T09:24:56.956Z,95156.00
2023-04-28T09:25:56.893Z,95156.00
2023-04-28T09:26:56.734Z,95158.00
2023-04-28T09:27:57.125Z,95160.00
2023-04-28T09:28:56.641Z,95152.00
2023-04-28T09:29:56.599Z,95156.00
2023-04-28T09:30:56.422Z,95156.00
2023-04-28T09:31:56.444Z,95154.00
2023-04-28T09:32:56.497Z,95156.00
2023-04-28T09:33:56.332Z,95156.00
2023-04-28T09:34:56.315Z,95156.00
2023-04-28T09:35:56.268Z,95154.00
2023-04-28T09:36:56.264Z,95158.00
2023-04-28T09:37:56.452Z,95172.00
2023-04-28T09:38:56.999Z,95162.00
2023-04-28T09:39:56.145Z,95181.00
2023-04-28T09:40:56.137Z,95174.00
2023-04-28T09:41:56.448Z,95177.00
2023-04-28T09:42:56.039Z,95166.00
2023-04-28T09:43:55.994Z,95185.00
2023-04-28T09:44:56.062Z,95177.00
2023-04-28T09:45:55.976Z,95177.00
2023-04-28T09:47:03.339Z,95179.00
2023-04-28T09:47:55.971Z,95152.00
2023-04-28T09:48:55.849Z,95158.00
2023-04-28T09:49:55.957Z,95154.00
2023-04-28T09:50:55.787Z,95154.00
2023-04-28T09:51:56.114Z,95154.00
2023-04-28T09:52:56.072Z,95156.00
2023-04-28T09:53:55.697Z,95158.00
2023-04-28T09:54:55.660Z,95158.00
2023-04-28T09:55:55.704Z,95156.00
2023-04-28T09:56:55.666Z,95154.00
2023-04-28T09:57:55.945Z,95154.00
2023-04-28T09:58:55.965Z,95154.00
2023-04-28T09:59:55.532Z,95150.00
2023-04-28T10:00:55.585Z,95146.00
2023-04-28T10:01:55.477Z,95154.00
2023-04-28T10:02:55.581Z,95134.00
2023-04-28T10:03:55.537Z,95138.00
2023-04-28T10:04:55.532Z,95148.00
2023-04-28T10:05:55.362Z,95134.00
2023-04-28T10:06:55.352Z,95134.00
2023-04-28T10:07:55.316Z,95136.00
2023-04-28T10:08:55.454Z,95148.00
2023-04-28T10:09:55.281Z,95132.00
2023-04-28T10:10:55.244Z,95136.00
2023-04-28T10:11:55.215Z,95138.00
2023-04-28T10:12:55.180Z,95138.00
2023-04-28T10:13:55.457Z,95136.00
2023-04-28T10:14:55.153Z,95134.00
2023-04-28T10:15:55.684Z,95132.00
2023-04-28T10:16:55.127Z,95134.00
2023-04-28T10:17:55.277Z,95130.00
2023-04-28T10:18:55.453Z,95132.00
2023-04-28T10:19:55.022Z,95128.00
2023-04-28T10:20:54.995Z,95130.00
2023-04-28T10:21:54.974Z,95126.00
2023-04-28T10:22:56.187Z,95120.00
2023-04-28T10:23:54.954Z,95122.00
2023-04-28T10:24:54.921Z,95124.00
2023-04-28T10:25:54.886Z,95128.00
2023-04-28T10:26:54.899Z,95119.00
2023-04-28T10:27:55.027Z,95126.00
2023-04-28T10:28:54.954Z,95128.00
2023-04-28T10:29:54.810Z,95126.00
2023-04-28T10:30:55.050Z,95124.00
2023-04-28T10:31:54.749Z,95120.00
2023-04-28T10:32:54.871Z,95126.00
2023-04-28T10:33:55.034Z,95126.00
2023-04-28T10:34:54.729Z,95124.00
2023-04-28T10:35:54.674Z,95119.00
2023-04-28T10:36:54.708Z,95126.00
2023-04-28T10:37:54.988Z,95120.00
2023-04-28T10:38:54.691Z,95124.00
2023-04-28T10:39:54.712Z,95124.00
2023-04-28T10:40:54.966Z,95120.00
2023-04-28T10:41:54.725Z,95117.00
2023-04-28T10:42:54.708Z,95120.00
2023-04-28T10:43:54.718Z,95115.00
2023-04-28T10:44:54.715Z,95107.00
2023-04-28T10:45:56.536Z,95113.00
2023-04-28T10:46:55.021Z,95117.00
2023-04-28T10:47:54.713Z,95113.00
2023-04-28T10:48:55.028Z,95113.00
2023-04-28T10:49:54.623Z,95107.00
2023-04-28T10:50:54.602Z,95113.00
2023-04-28T10:51:54.574Z,95115.00
2023-04-28T10:52:54.558Z,95109.00
2023-04-28T10:53:54.976Z,95117.00
2023-04-28T10:54:54.530Z,95111.00
2023-04-28T10:55:54.998Z,95119.00
2023-04-28T10:56:54.469Z,95115.00
2023-04-28T10:57:54.494Z,95113.00
2023-04-28T10:58:55.267Z,95113.00
2023-04-28T10:59:54.418Z,95113.00
2023-04-28T11:00:54.400Z,95117.00
2023-04-28T11:01:54.405Z,95115.00
2023-04-28T11:02:54.503Z,95122.00
2023-04-28T11:03:54.993Z,95124.00
2023-04-28T11:04:54.625Z,95120.00
2023-04-28T11:05:54.290Z,95122.00
2023-04-28T11:06:54.266Z,95120.00
2023-04-28T11:07:54.247Z,95119.00
2023-04-28T11:08:54.219Z,95120.00
2023-04-28T11:09:54.575Z,95113.00
2023-04-28T11:10:54.197Z,95117.00
2023-04-28T11:11:54.474Z,95115.00
2023-04-28T11:12:54.137Z,95119.00
2023-04-28T11:13:54.107Z,95117.00
2023-04-28T11:14:54.075Z,95113.00
2023-04-28T11:15:54.072Z,95105.00
2023-04-28T11:16:54.546Z,95105.00
2023-04-28T11:17:54.210Z,95105.00
2023-04-28T11:18:55.707Z,95101.00
2023-04-28T11:19:53.999Z,95095.00
2023-04-28T11:20:53.963Z,95093.00
2023-04-28T11:21:53.917Z,95089.00
2023-04-28T11:22:53.888Z,95091.00
2023-04-28T11:23:53.995Z,95091.00
2023-04-28T11:24:54.102Z,95091.00
2023-04-28T11:25:53.831Z,95089.00
2023-04-28T11:26:53.877Z,95089.00
2023-04-28T11:27:53.780Z,95095.00
2023-04-28T11:28:54.003Z,95091.00
2023-04-28T11:29:53.737Z,95087.00
2023-04-28T11:30:54.253Z,95091.00
2023-04-28T11:31:53.806Z,95091.00
2023-04-28T11:32:53.730Z,95093.00
2023-04-28T11:33:53.650Z,95089.00
2023-04-28T11:34:53.609Z,95087.00
2023-04-28T11:35:53.584Z,95091.00
2023-04-28T11:36:54.904Z,95091.00
2023-04-28T11:37:53.580Z,95089.00
2023-04-28T11:38:53.996Z,95087.00
2023-04-28T11:39:53.567Z,95087.00
2023-04-28T11:40:53.560Z,95091.00
2023-04-28T11:41:53.559Z,95087.00
2023-04-28T11:42:54.465Z,95089.00
2023-04-28T11:43:53.584Z,95085.00
2023-04-28T11:44:53.941Z,95087.00